Time;durP1;ratioP1;P1;durP2;ratioP2;P2;SDS_P1;SDS_P2;PMS_P1;PMS_P2;Temp;Humidity;BMP_temperature;BMP_pressure;BME280_temperature;BME280_humidity;BME280_pressure;Samples;Min_cycle;Max_cycle;Signal;HPM_P1;HPM_P2
2023/12/21 00:01:41;;;;;;;8.30;4.72;;;;;;;8.49;100.00;100222.88;4981234;28;20046;-83
2023/12/21 00:04:09;;;;;;;11.23;4.90;;;;;;;8.51;100.00;100229.56;4981725;28;20047;-83
2023/12/21 00:06:36;;;;;;;6.03;4.65;;;;;;;8.53;100.00;100221.59;4968573;28;20091;-82
2023/12/21 00:09:06;;;;;;;9.18;4.50;;;;;;;8.50;100.00;100201.88;4962103;28;20059;-82
2023/12/21 00:11:33;;;;;;;5.43;4.25;;;;;;;8.57;100.00;100200.25;4963059;28;20047;-82
2023/12/21 00:14:00;;;;;;;8.10;4.68;;;;;;;8.61;100.00;100203.38;4980020;28;20500;-82
2023/12/21 00:16:27;;;;;;;6.88;4.15;;;;;;;8.62;100.00;100194.59;4981431;28;20098;-82
2023/12/21 00:18:53;;;;;;;6.95;4.63;;;;;;;8.68;100.00;100199.19;4981731;28;20105;-82
2023/12/21 00:21:21;;;;;;;6.75;4.50;;;;;;;8.68;100.00;100193.97;4973253;28;20114;-84
2023/12/21 00:23:48;;;;;;;7.75;4.72;;;;;;;8.65;100.00;100192.50;4974793;28;20086;-83
2023/12/21 00:26:15;;;;;;;8.13;4.70;;;;;;;8.65;100.00;100194.28;4983461;28;20053;-78
2023/12/21 00:28:41;;;;;;;6.15;4.38;;;;;;;8.71;100.00;100193.66;4980414;28;20089;-81
2023/12/21 00:31:08;;;;;;;5.63;4.32;;;;;;;8.72;100.00;100190.09;4977975;28;20118;-83
2023/12/21 00:33:35;;;;;;;5.93;4.13;;;;;;;8.70;100.00;100184.22;4972367;28;20074;-83
2023/12/21 00:36:02;;;;;;;7.10;4.60;;;;;;;8.70;100.00;100181.59;4978890;28;20147;-82
2023/12/21 00:38:30;;;;;;;8.48;4.40;;;;;;;8.70;100.00;100176.38;4981140;28;20102;-82
2023/12/21 00:40:59;;;;;;;7.28;4.85;;;;;;;8.68;100.00;100161.88;4979534;28;20083;-84
2023/12/21 00:43:25;;;;;;;7.13;4.95;;;;;;;8.68;100.00;100157.47;4981062;28;20248;-84
2023/12/21 00:45:52;;;;;;;7.53;4.53;;;;;;;8.67;100.00;100155.81;4979789;28;20517;-83
2023/12/21 00:48:23;;;;;;;6.22;4.93;;;;;;;8.66;100.00;100151.59;4971808;28;20054;-84
2023/12/21 00:50:50;;;;;;;7.00;5.47;;;;;;;8.60;100.00;100154.81;4973674;28;20083;-84
2023/12/21 00:53:17;;;;;;;7.97;5.70;;;;;;;8.62;100.00;100158.91;4976611;28;20106;-84
2023/12/21 00:55:45;;;;;;;9.27;5.90;;;;;;;8.62;100.00;100168.50;4973181;28;20166;-83
2023/12/21 00:58:12;;;;;;;8.90;6.40;;;;;;;8.65;100.00;100155.16;4975104;28;20050;-83
2023/12/21 01:00:39;;;;;;;8.40;6.65;;;;;;;8.62;100.00;100145.84;4965747;28;20108;-83
2023/12/21 01:03:05;;;;;;;10.07;6.82;;;;;;;8.60;100.00;100136.53;4959139;28;20076;-82
2023/12/21 01:05:32;;;;;;;10.25;6.97;;;;;;;8.60;100.00;100139.16;4972385;28;20074;-82
2023/12/21 01:07:59;;;;;;;10.68;6.53;;;;;;;8.59;100.00;100133.13;4977942;28;20058;-82
2023/12/21 01:10:25;;;;;;;9.73;7.07;;;;;;;8.61;100.00;100122.53;4961235;28;20062;-81
2023/12/21 01:12:54;;;;;;;8.95;6.82;;;;;;;8.64;100.00;100124.84;4957115;28;20134;-80
2023/12/21 01:15:21;;;;;;;13.02;6.80;;;;;;;8.65;100.00;100129.09;4975891;28;20050;-81
2023/12/21 01:17:48;;;;;;;13.98;7.00;;;;;;;8.65;100.00;100121.25;4977402;28;20061;-80
2023/12/21 01:20:15;;;;;;;12.30;6.85;;;;;;;8.67;100.00;100128.94;4978566;28;20085;-81
2023/12/21 01:22:42;;;;;;;10.40;7.00;;;;;;;8.70;100.00;100126.81;4981962;28;20078;-81
2023/12/21 01:25:09;;;;;;;9.38;7.03;;;;;;;8.74;100.00;100125.53;4979158;28;20105;-84
2023/12/21 01:27:35;;;;;;;9.75;7.25;;;;;;;8.78;100.00;100120.84;4982683;28;20047;-81
2023/12/21 01:30:04;;;;;;;11.70;7.32;;;;;;;8.73;100.00;100113.47;4992035;28;20054;-82
2023/12/21 01:32:31;;;;;;;10.57;7.63;;;;;;;8.74;100.00;100104.69;4990619;28;20050;-82
2023/12/21 01:34:57;;;;;;;13.52;6.82;;;;;;;8.75;100.00;100106.31;4983934;28;20050;-82
2023/12/21 01:37:24;;;;;;;11.15;7.22;;;;;;;8.79;100.00;100105.03;4978726;28;20113;-83
2023/12/21 01:39:50;;;;;;;8.23;7.28;;;;;;;8.78;100.00;100102.56;4979296;28;20134;-82
2023/12/21 01:42:17;;;;;;;8.82;6.53;;;;;;;8.75;100.00;100085.44;4962969;28;20110;-82
2023/12/21 01:44:43;;;;;;;11.07;6.30;;;;;;;8.76;100.00;100070.59;4977929;28;20142;-83
2023/12/21 01:47:12;;;;;;;10.25;7.55;;;;;;;8.71;100.00;100055.44;4978566;28;20086;-83
2023/12/21 01:49:39;;;;;;;13.30;7.47;;;;;;;8.73;100.00;100063.91;4978905;28;20149;-82
2023/12/21 01:52:08;;;;;;;12.38;7.75;;;;;;;8.78;100.00;100064.25;4977851;28;20110;-80
2023/12/21 01:54:36;;;;;;;11.80;7.60;;;;;;;8.76;100.00;100060.16;4967293;28;20133;-82
2023/12/21 01:57:03;;;;;;;10.00;7.20;;;;;;;8.78;100.00;100069.47;4958655;28;20082;-83
2023/12/21 01:59:31;;;;;;;8.23;6.35;;;;;;;8.74;100.00;100068.16;4978172;28;20117;-82
2023/12/21 02:01:57;;;;;;;8.43;6.80;;;;;;;8.73;100.00;100050.88;4978387;28;20144;-82
2023/12/21 02:04:25;;;;;;;8.10;6.47;;;;;;;8.75;100.00;100048.91;4978558;28;20534;-82
2023/12/21 02:06:52;;;;;;;8.18;6.10;;;;;;;8.71;100.00;100045.00;4979931;28;20108;-82
2023/12/21 02:09:19;;;;;;;9.35;6.25;;;;;;;8.76;100.00;100040.13;4970219;28;20087;-81
2023/12/21 02:11:46;;;;;;;8.85;5.93;;;;;;;8.76;100.00;100039.31;4961430;28;20138;-81
2023/12/21 02:14:13;;;;;;;6.68;5.70;;;;;;;8.75;100.00;100038.47;4977636;28;20051;-81
2023/12/21 02:16:49;;;;;;;9.88;5.88;;;;;;;8.76;100.00;100029.69;4972321;28;20143;-81
2023/12/21 02:19:19;;;;;;;8.95;6.30;;;;;;;8.76;100.00;100029.69;4977587;28;20861;-81
2023/12/21 02:21:48;;;;;;;10.60;6.18;;;;;;;8.80;100.00;100024.97;4978488;28;20051;-80
2023/12/21 02:24:18;;;;;;;8.35;5.70;;;;;;;8.79;100.00;100021.53;4981759;28;20043;-81
2023/12/21 02:26:45;;;;;;;7.45;6.18;;;;;;;8.81;100.00;100021.38;4989979;28;20057;-82
2023/12/21 02:29:12;;;;;;;7.38;5.50;;;;;;;8.85;100.00;100018.31;4970604;28;20450;-82
2023/12/21 02:31:39;;;;;;;8.25;5.88;;;;;;;8.87;100.00;100025.97;4983897;28;20086;-82
2023/12/21 02:34:06;;;;;;;7.55;5.22;;;;;;;8.87;100.00;100031.19;4983863;28;20122;-82
2023/12/21 02:36:33;;;;;;;7.55;6.15;;;;;;;8.84;100.00;100027.09;4983245;28;20053;-81
2023/12/21 02:38:59;;;;;;;8.55;5.85;;;;;;;8.83;100.00;100025.47;4983592;28;20461;-81
2023/12/21 02:41:27;;;;;;;8.85;5.97;;;;;;;8.88;100.00;100017.97;4971455;28;20134;-82
2023/12/21 02:43:54;;;;;;;9.55;6.07;;;;;;;8.88;100.00;100020.59;4978668;28;20051;-84
2023/12/21 02:46:21;;;;;;;8.90;6.20;;;;;;;8.86;100.00;100029.56;4981611;28;20150;-84
2023/12/21 02:48:48;;;;;;;8.98;6.15;;;;;;;8.85;100.00;100007.88;4983557;28;20097;-84
2023/12/21 02:51:15;;;;;;;8.15;6.15;;;;;;;8.82;100.00;99992.53;4980525;28;20082;-83
2023/12/21 02:53:41;;;;;;;9.55;6.18;;;;;;;8.84;100.00;99994.97;4974318;28;20121;-83
2023/12/21 02:56:08;;;;;;;10.32;6.47;;;;;;;8.82;100.00;99997.75;4981073;28;20147;-83
2023/12/21 02:58:37;;;;;;;12.70;6.68;;;;;;;8.87;100.00;99984.22;4984693;28;20051;-82
2023/12/21 03:01:04;;;;;;;9.02;6.35;;;;;;;8.85;100.00;99983.56;4984786;28;20148;-83
2023/12/21 03:03:31;;;;;;;9.32;6.15;;;;;;;8.79;100.00;99979.81;4977085;28;20045;-81
2023/12/21 03:05:57;;;;;;;10.80;6.07;;;;;;;8.79;100.00;99971.97;4983339;28;20111;-82
2023/12/21 03:08:24;;;;;;;9.98;6.57;;;;;;;8.83;100.00;99955.03;4985404;28;20088;-82
2023/12/21 03:10:51;;;;;;;9.68;6.25;;;;;;;8.83;100.00;99969.88;4984273;28;20157;-82
2023/12/21 03:13:17;;;;;;;9.35;6.13;;;;;;;8.80;100.00;99957.97;4983808;28;20051;-82
2023/12/21 03:15:45;;;;;;;8.93;5.90;;;;;;;8.84;100.00;99948.84;4979141;28;20057;-82
2023/12/21 03:18:12;;;;;;;10.93;6.00;;;;;;;8.87;100.00;99940.69;4963999;28;20129;-82
2023/12/21 03:20:39;;;;;;;9.70;6.03;;;;;;;8.80;100.00;99944.91;4967274;28;20063;-82
2023/12/21 03:23:06;;;;;;;8.73;6.00;;;;;;;8.83;100.00;99962.84;4986609;28;20066;-83
2023/12/21 03:25:32;;;;;;;11.27;6.28;;;;;;;8.85;100.00;99954.88;4977279;28;20510;-83
2023/12/21 03:27:59;;;;;;;9.48;5.63;;;;;;;8.86;100.00;99946.88;4964735;28;20078;-83
2023/12/21 03:30:26;;;;;;;9.15;5.70;;;;;;;8.89;100.00;99943.13;4977061;28;20086;-83
2023/12/21 03:32:55;;;;;;;10.32;5.50;;;;;;;8.86;100.00;99952.09;4984409;28;20054;-82
2023/12/21 03:35:21;;;;;;;8.00;5.50;;;;;;;8.87;100.00;99945.91;4981644;28;20465;-82
2023/12/21 03:37:48;;;;;;;9.68;5.95;;;;;;;8.85;100.00;99929.59;4965335;28;20070;-81
2023/12/21 03:40:15;;;;;;;7.50;5.72;;;;;;;8.86;100.00;99904.31;4961671;28;20061;-82
2023/12/21 03:42:41;;;;;;;7.05;5.50;;;;;;;8.88;100.00;99887.53;4978012;28;20510;-82
2023/12/21 03:45:09;;;;;;;7.68;5.00;;;;;;;8.91;100.00;99902.88;4977724;28;20079;-80
2023/12/21 03:47:35;;;;;;;8.05;4.82;;;;;;;8.87;100.00;99887.69;4985169;28;20090;-82
2023/12/21 03:50:03;;;;;;;12.02;5.60;;;;;;;8.89;100.00;99870.91;4981793;28;20104;-82
2023/12/21 03:52:30;;;;;;;7.38;5.05;;;;;;;8.89;100.00;99846.59;4971989;28;20089;-83
2023/12/21 03:54:57;;;;;;;9.23;5.25;;;;;;;8.89;100.00;99836.97;4964545;28;20538;-82
2023/12/21 03:57:23;;;;;;;10.95;5.68;;;;;;;8.89;100.00;99825.72;4971205;28;20093;-82
2023/12/21 03:59:50;;;;;;;10.02;5.22;;;;;;;8.87;100.00;99838.94;4971753;28;20098;-83
2023/12/21 04:02:16;;;;;;;8.23;5.20;;;;;;;8.90;100.00;99845.63;4987112;28;20058;-83
2023/12/21 04:04:43;;;;;;;7.55;4.70;;;;;;;8.82;100.00;99846.44;4988861;28;20046;-84
2023/12/21 04:07:11;;;;;;;7.28;4.40;;;;;;;8.84;100.00;99844.47;4978048;28;20054;-84
2023/12/21 04:09:38;;;;;;;8.35;5.07;;;;;;;8.85;100.00;99840.91;4981605;28;20082;-82
2023/12/21 04:12:05;;;;;;;7.43;4.35;;;;;;;8.81;100.00;99846.59;4974970;28;20531;-83
2023/12/21 04:14:32;;;;;;;10.10;4.97;;;;;;;8.83;100.00;99827.19;4971204;28;20065;-83
2023/12/21 04:16:59;;;;;;;9.70;4.65;;;;;;;8.85;100.00;99812.19;4960936;28;20062;-82
2023/12/21 04:19:25;;;;;;;7.72;4.60;;;;;;;8.82;100.00;99820.34;4972757;28;20118;-83
2023/12/21 04:21:52;;;;;;;8.32;4.53;;;;;;;8.83;100.00;99816.75;4980188;28;20125;-82
2023/12/21 04:24:20;;;;;;;5.97;3.92;;;;;;;8.85;100.00;99809.59;4980099;28;20043;-83
2023/12/21 04:26:46;;;;;;;7.22;4.38;;;;;;;8.87;100.00;99814.66;4980333;28;20074;-83
2023/12/21 04:29:13;;;;;;;6.63;4.43;;;;;;;8.81;100.00;99804.88;4968721;28;20502;-83
2023/12/21 04:31:42;;;;;;;6.57;4.13;;;;;;;8.83;100.00;99795.06;4981060;28;20129;-82
2023/12/21 04:34:09;;;;;;;8.43;4.25;;;;;;;8.85;100.00;99798.34;4979403;28;20050;-82
2023/12/21 04:36:37;;;;;;;8.18;4.32;;;;;;;8.81;100.00;99803.06;4984697;28;20965;-83
2023/12/21 04:39:04;;;;;;;8.38;4.65;;;;;;;8.82;100.00;99794.25;4979799;28;20050;-83
2023/12/21 04:41:32;;;;;;;7.32;4.32;;;;;;;8.78;100.00;99806.00;4980248;28;20133;-84
2023/12/21 04:43:59;;;;;;;8.95;4.47;;;;;;;8.79;100.00;99791.97;4980939;28;20155;-83
2023/12/21 04:46:25;;;;;;;8.02;4.95;;;;;;;8.80;100.00;99796.22;4983499;28;20391;-83
2023/12/21 04:48:52;;;;;;;10.13;4.80;;;;;;;8.79;100.00;99794.59;4961470;28;20138;-83
2023/12/21 04:51:19;;;;;;;6.88;4.63;;;;;;;8.79;100.00;99788.56;4959628;28;20079;-82
2023/12/21 04:53:45;;;;;;;6.72;4.28;;;;;;;8.79;100.00;99786.75;4971984;28;20089;-82
2023/12/21 04:56:12;;;;;;;5.40;4.10;;;;;;;8.84;100.00;99792.31;4978261;28;20051;-82
2023/12/21 04:58:40;;;;;;;8.77;4.35;;;;;;;8.83;100.00;99780.25;4977887;28;20051;-83
2023/12/21 05:01:07;;;;;;;12.57;4.70;;;;;;;8.83;100.00;99780.25;4980461;28;20077;-82
2023/12/21 05:03:34;;;;;;;6.40;4.07;;;;;;;8.87;100.00;99768.50;4977528;28;20078;-81
2023/12/21 05:06:01;;;;;;;8.02;4.80;;;;;;;8.90;100.00;99756.91;4972197;28;20058;-82
2023/12/21 05:08:28;;;;;;;6.43;4.15;;;;;;;8.96;100.00;99762.28;4973945;28;20083;-83
2023/12/21 05:10:55;;;;;;;8.30;4.10;;;;;;;8.94;100.00;99761.63;4964000;28;20062;-82
2023/12/21 05:13:21;;;;;;;9.32;4.88;;;;;;;8.94;100.00;99758.22;4957784;28;20065;-82
2023/12/21 05:15:49;;;;;;;11.15;4.65;;;;;;;8.92;100.00;99729.69;4966845;28;20086;-82
2023/12/21 05:18:16;;;;;;;7.22;4.22;;;;;;;8.92;100.00;99728.88;4961511;28;20087;-82
2023/12/21 05:20:42;;;;;;;5.85;4.43;;;;;;;8.94;100.00;99735.56;4980165;28;20130;-84
2023/12/21 05:23:09;;;;;;;8.57;4.53;;;;;;;8.91;100.00;99724.63;4980481;28;20141;-83
2023/12/21 05:25:36;;;;;;;6.60;4.45;;;;;;;8.92;100.00;99715.81;4980584;28;20114;-83
2023/12/21 05:28:02;;;;;;;10.35;5.13;;;;;;;8.93;100.00;99713.06;4963175;28;20078;-82
2023/12/21 05:30:29;;;;;;;7.40;4.78;;;;;;;8.86;100.00;99701.66;4961039;28;20051;-82
2023/12/21 05:32:57;;;;;;;8.13;4.65;;;;;;;8.89;100.00;99701.31;4960568;28;20087;-82
2023/12/21 05:35:25;;;;;;;11.27;4.70;;;;;;;8.94;100.00;99713.88;4963100;28;20110;-82
2023/12/21 05:37:51;;;;;;;9.38;4.93;;;;;;;8.88;100.00;99704.09;4978879;28;20061;-82
2023/12/21 05:40:19;;;;;;;10.45;5.22;;;;;;;8.86;100.00;99700.84;4969159;28;20083;-81
2023/12/21 05:42:46;;;;;;;9.38;4.97;;;;;;;8.93;100.00;99686.97;4959517;28;20058;-82
2023/12/21 05:45:12;;;;;;;10.30;5.10;;;;;;;8.96;100.00;99676.19;4960492;28;20130;-82
2023/12/21 05:47:39;;;;;;;9.43;5.18;;;;;;;8.97;100.00;99671.78;4981505;28;20047;-84
2023/12/21 05:50:08;;;;;;;9.00;5.57;;;;;;;9.02;100.00;99672.06;4966129;28;20166;-83
2023/12/21 05:52:35;;;;;;;14.18;5.25;;;;;;;9.04;100.00;99667.47;4960179;28;20061;-83
2023/12/21 05:55:02;;;;;;;12.13;5.38;;;;;;;9.07;100.00;99663.72;4959659;28;20433;-83
2023/12/21 05:57:29;;;;;;;22.80;6.97;;;;;;;9.10;100.00;99651.16;4962319;28;20102;-83
2023/12/21 05:59:55;;;;;;;8.98;4.82;;;;;;;9.12;100.00;99645.75;4969854;28;20111;-83
2023/12/21 06:02:22;;;;;;;17.50;6.47;;;;;;;9.13;100.00;99645.59;4980668;28;20129;-83
2023/12/21 06:04:50;;;;;;;10.82;5.75;;;;;;;9.13;100.00;99647.38;4984599;28;20059;-83
2023/12/21 06:07:18;;;;;;;15.80;5.63;;;;;;;9.19;100.00;99637.09;4995230;28;20073;-83
2023/12/21 06:09:44;;;;;;;16.17;6.13;;;;;;;9.27;100.00;99644.88;4988950;28;20035;-82
2023/12/21 06:12:11;;;;;;;18.02;6.18;;;;;;;9.29;100.00;99642.09;4970450;28;20121;-82
2023/12/21 06:14:38;;;;;;;14.20;5.32;;;;;;;9.25;100.00;99625.16;4971138;28;20046;-82
2023/12/21 06:17:05;;;;;;;16.02;6.13;;;;;;;9.30;100.00;99639.31;4969149;28;20047;-82
2023/12/21 06:19:31;;;;;;;13.52;5.88;;;;;;;9.37;100.00;99615.13;4976829;28;20089;-82
2023/12/21 06:21:58;;;;;;;11.23;5.53;;;;;;;9.37;100.00;99608.13;4960659;28;20502;-82
2023/12/21 06:24:26;;;;;;;16.55;5.93;;;;;;;9.40;100.00;99613.00;4967111;28;20558;-82
2023/12/21 06:26:53;;;;;;;11.32;5.57;;;;;;;9.44;100.00;99609.06;4958822;28;20101;-83
2023/12/21 06:29:20;;;;;;;12.93;5.60;;;;;;;9.43;100.00;99612.66;4976928;28;20054;-84
2023/12/21 06:31:46;;;;;;;11.13;5.55;;;;;;;9.40;100.00;99605.16;4966574;28;20059;-83
2023/12/21 06:34:13;;;;;;;10.02;5.00;;;;;;;9.45;100.00;99615.88;4959710;28;20058;-83
2023/12/21 06:36:41;;;;;;;12.98;5.22;;;;;;;9.55;100.00;99629.50;4969933;28;20481;-83
2023/12/21 06:39:08;;;;;;;10.27;4.57;;;;;;;9.54;100.00;99625.28;4974700;28;20095;-84
2023/12/21 06:41:45;;;;;;;12.77;5.15;;;;;;;9.51;100.00;99625.63;4979782;28;20592;-83
2023/12/21 06:44:12;;;;;;;10.80;6.45;;;;;;;9.53;100.00;99597.53;4970946;28;20046;-84
2023/12/21 06:46:42;;;;;;;8.93;4.72;;;;;;;9.54;100.00;99580.88;4977724;28;20055;-83
2023/12/21 06:49:19;;;;;;;11.65;4.93;;;;;;;9.58;100.00;99587.38;4974342;28;20050;-82
2023/12/21 06:51:54;;;;;;;13.05;5.50;;;;;;;9.58;100.00;99587.38;4960743;28;20499;-81
2023/12/21 06:54:24;;;;;;;10.10;5.25;;;;;;;9.54;100.00;99580.88;4962627;28;20070;-82
2023/12/21 06:57:04;;;;;;;10.18;5.22;;;;;;;9.53;100.00;99579.25;4971033;28;20094;-83
2023/12/21 06:59:37;;;;;;;13.10;5.43;;;;;;;9.47;100.00;99572.13;4974223;28;20178;-83
2023/12/21 07:02:12;;;;;;;10.13;4.90;;;;;;;9.51;100.00;99581.22;4977888;28;20451;-83
2023/12/21 07:04:54;;;;;;;19.30;6.03;;;;;;;9.48;100.00;99562.50;4974645;28;20070;-83
2023/12/21 07:07:36;;;;;;;15.50;6.07;;;;;;;9.31;100.00;99539.13;4978081;28;20093;-83
2023/12/21 07:10:07;;;;;;;14.18;5.78;;;;;;;9.39;100.00;99566.97;4961285;28;20059;-83
2023/12/21 07:12:45;;;;;;;11.32;5.47;;;;;;;9.43;100.00;99576.09;4963755;28;20134;-83
2023/12/21 07:15:18;;;;;;;11.82;5.45;;;;;;;9.47;100.00;99579.94;4984215;28;20126;-83
2023/12/21 07:17:55;;;;;;;12.82;6.57;;;;;;;9.46;100.00;99574.91;4966070;28;20047;-83
2023/12/21 07:20:43;;;;;;;11.85;5.85;;;;;;;9.43;100.00;99573.47;4967493;28;20094;-83
2023/12/21 07:23:19;;;;;;;14.80;6.60;;;;;;;9.42;100.00;99578.88;4982496;28;20086;-82
2023/12/21 07:25:46;;;;;;;13.10;6.68;;;;;;;9.43;100.00;99581.31;4967724;28;20047;-82
2023/12/21 07:28:20;;;;;;;16.58;6.68;;;;;;;9.32;100.00;99555.59;4965225;28;20555;-82
2023/12/21 07:30:53;;;;;;;17.42;7.47;;;;;;;9.32;100.00;99553.00;4963019;28;20371;-82
2023/12/21 07:33:22;;;;;;;18.85;6.40;;;;;;;9.46;100.00;99554.00;4970946;28;20102;-84
2023/12/21 07:35:55;;;;;;;22.58;6.55;;;;;;;9.36;100.00;99529.97;4963003;28;20106;-84
2023/12/21 07:38:32;;;;;;;15.60;6.18;;;;;;;9.53;100.00;99536.66;4976027;28;20058;-84
2023/12/21 07:41:08;;;;;;;17.00;6.97;;;;;;;9.49;100.00;99502.25;4982250;28;20082;-83
2023/12/21 07:43:37;;;;;;;17.38;5.70;;;;;;;9.62;100.00;99507.69;4982343;28;20050;-84
2023/12/21 07:46:03;;;;;;;15.50;5.95;;;;;;;9.62;100.00;99499.84;4981617;28;20170;-83
2023/12/21 07:48:30;;;;;;;15.77;6.20;;;;;;;9.58;100.00;99490.75;4972767;28;20105;-83
2023/12/21 07:50:57;;;;;;;14.60;7.05;;;;;;;9.63;100.00;99470.13;4971181;28;20466;-83
2023/12/21 07:53:23;;;;;;;14.27;5.88;;;;;;;9.62;100.00;99465.91;4979647;28;20097;-83
2023/12/21 07:55:53;;;;;;;14.80;6.05;;;;;;;9.67;100.00;99454.13;5014632;23;20081;-84
2023/12/21 07:58:20;;;;;;;15.48;5.75;;;;;;;9.66;100.00;99450.69;4969712;29;20039;-83
2023/12/21 08:00:55;;;;;;;15.30;5.30;;;;;;;9.68;100.00;99440.06;4971369;29;20171;-80
2023/12/21 08:14:31;;;;;;;;;;;;;;;;;;;;;
2023/12/21 08:21:35;;;;;;;12.20;4.80;;;;;;;9.94;100.00;99382.94;4939543;29;20102;-82
2023/12/21 08:33:25;;;;;;;11.23;4.80;;;;;;;10.03;100.00;99334.78;4818005;29;20069;-82
2023/12/21 08:36:00;;;;;;;9.43;4.32;;;;;;;10.02;100.00;99333.19;4898468;29;20066;-82
2023/12/21 08:38:53;;;;;;;13.05;4.53;;;;;;;10.02;100.00;99322.72;4944186;29;20051;-83
2023/12/21 08:41:28;;;;;;;11.88;4.35;;;;;;;10.12;100.00;99344.16;4969538;29;20071;-82
2023/12/21 08:44:03;;;;;;;14.52;4.00;;;;;;;10.06;100.00;99333.63;4962891;29;20497;-82
2023/12/21 08:46:46;;;;;;;10.05;4.55;;;;;;;9.91;100.00;99328.44;4969927;28;20126;-82
2023/12/21 08:49:28;;;;;;;;;;;;;;;9.80;100.00;99334.13;4964693;29;20078;-82
2023/12/21 08:52:02;;;;;;;9.40;4.07;;;;;;;9.70;100.00;99347.47;4971533;29;19954;-82
2023/12/21 08:54:37;;;;;;;10.48;4.10;;;;;;;9.59;100.00;99322.63;4971488;28;20057;-84
2023/12/21 08:57:16;;;;;;;9.85;4.30;;;;;;;9.70;100.00;99349.28;4970681;29;20059;-83
2023/12/21 09:00:20;;;;;;;10.50;4.13;;;;;;;9.52;100.00;99328.75;4972093;29;20172;-84
2023/12/21 09:02:52;;;;;;;10.95;4.32;;;;;;;9.52;100.00;99326.94;4970720;29;20062;-82
2023/12/21 09:05:58;;;;;;;9.77;4.13;;;;;;;9.57;100.00;99344.69;4971226;28;20039;-83
2023/12/21 09:09:02;;;;;;;8.70;3.97;;;;;;;9.51;100.00;99327.94;4962071;29;20062;-84
2023/12/21 09:12:00;;;;;;;13.80;4.50;;;;;;;9.44;100.00;99307.97;4954439;29;20055;-83
2023/12/21 09:14:56;;;;;;;10.00;4.53;;;;;;;9.49;100.00;99322.06;4945443;28;20114;-82
2023/12/21 09:18:18;;;;;;;9.68;4.88;;;;;;;9.43;100.00;99315.00;4967617;28;20035;-82
2023/12/21 09:21:18;;;;;;;13.93;4.32;;;;;;;9.52;100.00;99331.34;4967507;28;20517;-81
2023/12/21 09:24:11;;;;;;;;;;;;;;;;;;;;;
2023/12/21 09:26:44;;;;;;;11.60;3.97;;;;;;;9.49;100.00;99310.81;4960530;29;20110;-83
2023/12/21 09:32:35;;;;;;;10.57;4.32;;;;;;;9.45;100.00;99305.16;4966684;28;20059;-82
2023/12/21 09:35:17;;;;;;;13.15;4.63;;;;;;;9.44;100.00;99298.34;4969043;29;20048;-83
2023/12/21 09:37:50;;;;;;;11.53;4.37;;;;;;;9.46;100.00;99279.84;4964191;29;20164;-82
2023/12/21 09:43:16;;;;;;;6.97;4.00;;;;;;;9.57;100.00;99298.47;4962973;28;20082;-81
2023/12/21 09:45:56;;;;;;;7.13;3.80;;;;;;;9.61;100.00;99297.13;4962397;28;20055;-81
2023/12/21 09:48:26;;;;;;;12.15;4.00;;;;;;;9.60;100.00;99285.06;4967031;29;20067;-80
2023/12/21 09:50:58;;;;;;;9.20;3.90;;;;;;;9.58;100.00;99278.41;4968019;29;20054;-81
2023/12/21 09:53:34;;;;;;;11.13;5.25;;;;;;;9.51;100.00;99257.44;4963082;29;20059;-80
2023/12/21 09:56:01;;;;;;;11.70;4.20;;;;;;;9.57;100.00;99272.38;4967556;28;20066;-81
2023/12/21 09:58:33;;;;;;;8.73;4.05;;;;;;;9.50;100.00;99252.38;4959402;29;20098;-82
2023/12/21 10:01:02;;;;;;;8.93;4.10;;;;;;;9.60;100.00;99260.75;4968443;29;20067;-81
2023/12/21 10:03:34;;;;;;;7.25;3.90;;;;;;;9.60;100.00;99271.19;4959248;29;20055;-80
2023/12/21 10:06:02;;;;;;;;;;;;;;;12.19;100.00;99260.53;4964002;28;20043;-79
2023/12/21 10:08:52;;;;;;;6.40;3.70;;;;;;;11.77;100.00;99224.97;4965353;29;20412;-79
2023/12/21 10:11:24;;;;;;;5.65;3.22;;;;;;;11.95;100.00;99211.28;4966001;28;20482;-81
2023/12/21 10:13:57;;;;;;;5.65;3.25;;;;;;;12.00;100.00;99219.34;4967487;29;20051;-81
2023/12/21 10:16:36;;;;;;;5.90;2.80;;;;;;;11.99;100.00;99212.50;4965773;28;20063;-81
2023/12/21 10:19:11;;;;;;;6.22;3.22;;;;;;;11.84;100.00;99206.59;4966003;29;20051;-79
2023/12/21 10:21:54;;;;;;;;;;;;;;;;;;;;;
2023/12/21 10:24:29;;;;;;;5.60;3.35;;;;;;;11.85;100.00;99176.78;4967654;29;20047;-80
2023/12/21 10:26:56;;;;;;;4.53;3.40;;;;;;;11.79;100.00;99194.13;4965737;28;20141;-82
2023/12/21 10:29:26;;;;;;;3.72;2.95;;;;;;;11.82;100.00;99182.41;4966758;29;20086;-80
2023/12/21 10:32:08;;;;;;;6.68;3.10;;;;;;;12.13;100.00;99182.66;4967610;29;20149;-79
2023/12/21 10:34:42;;;;;;;4.20;2.90;;;;;;;12.03;100.00;99187.50;4940447;29;20070;-80
2023/12/21 10:37:10;;;;;;;4.63;2.50;;;;;;;11.93;100.00;99172.16;4944959;29;20054;-80
2023/12/21 10:39:39;;;;;;;4.68;3.28;;;;;;;12.01;100.00;99168.53;4947029;29;20071;-80
2023/12/21 10:42:09;;;;;;;4.97;3.03;;;;;;;11.87;100.00;99180.00;4946361;29;20130;-79
2023/12/21 10:44:38;;;;;;;6.63;3.45;;;;;;;11.93;100.00;99153.81;4947250;29;20048;-80
2023/12/21 10:47:11;;;;;;;7.82;4.53;;;;;;;12.12;100.00;99175.81;4948558;29;20126;-79
2023/12/21 10:49:48;;;;;;;5.88;3.55;;;;;;;12.17;100.00;99155.03;4946277;29;20081;-77
2023/12/21 10:52:18;;;;;;;5.97;3.72;;;;;;;12.07;100.00;99130.22;4948246;29;20204;-82
2023/12/21 10:54:48;;;;;;;6.82;4.30;;;;;;;12.09;100.00;99141.31;4950333;29;20051;-81
2023/12/21 10:57:18;;;;;;;9.18;4.00;;;;;;;12.25;100.00;99128.59;4948060;29;20055;-79
2023/12/21 10:59:49;;;;;;;7.35;4.03;;;;;;;12.15;100.00;99125.59;4947132;29;20052;-80
2023/12/21 11:02:26;;;;;;;6.97;4.43;;;;;;;12.18;100.00;99133.03;4948919;29;20331;-80
2023/12/21 11:04:52;;;;;;;6.57;4.05;;;;;;;12.18;100.00;99121.75;4951605;29;20048;-80
2023/12/21 11:07:25;;;;;;;6.82;4.40;;;;;;;12.53;100.00;99120.47;4949533;29;20051;-80
2023/12/21 11:09:52;;;;;;;8.27;4.72;;;;;;;12.43;100.00;99120.09;4947938;29;20067;-80
2023/12/21 11:12:19;;;;;;;7.85;4.68;;;;;;;12.26;100.00;99098.75;4948790;29;20426;-79
2023/12/21 11:14:52;;;;;;;8.60;5.03;;;;;;;11.93;100.00;99096.13;4945844;29;20400;-79
2023/12/21 11:17:23;;;;;;;9.98;5.07;;;;;;;11.94;100.00;99082.03;4947911;29;20519;-79
2023/12/21 11:19:54;;;;;;;12.50;5.78;;;;;;;12.30;100.00;99102.53;4950563;29;20047;-79
2023/12/21 11:22:21;;;;;;;11.32;5.70;;;;;;;12.18;100.00;99101.59;4951744;29;20062;-80
2023/12/21 11:25:03;;;;;;;11.32;5.32;;;;;;;12.43;100.00;99108.78;4951782;29;20075;-80
2023/12/21 11:27:34;;;;;;;11.90;5.50;;;;;;;12.48;100.00;99122.91;4950046;29;20106;-80
2023/12/21 11:30:16;;;;;;;12.00;5.88;;;;;;;12.41;100.00;99113.44;4949228;29;20111;-78
2023/12/21 11:32:46;;;;;;;11.25;6.25;;;;;;;12.69;100.00;99087.75;4944929;28;20090;-79
2023/12/21 11:35:20;;;;;;;9.15;5.90;;;;;;;12.56;100.00;99083.34;4949847;29;20207;-79
2023/12/21 11:37:52;;;;;;;12.73;6.00;;;;;;;12.64;100.00;99100.69;4951056;29;20052;-79
2023/12/21 11:40:30;;;;;;;10.07;5.53;;;;;;;12.55;100.00;99075.69;4951393;29;20051;-79
2023/12/21 11:43:08;;;;;;;10.27;5.85;;;;;;;12.64;100.00;99090.19;4951571;28;20048;-80
2023/12/21 11:45:53;;;;;;;13.25;5.65;;;;;;;12.74;100.00;99060.88;4950999;29;20055;-80
2023/12/21 11:48:50;;;;;;;10.82;5.40;;;;;;;12.66;100.00;99071.59;4950797;29;20054;-81
2023/12/21 11:51:26;;;;;;;10.02;5.53;;;;;;;12.59;100.00;99045.38;4950463;28;20438;-80
2023/12/21 11:53:53;;;;;;;12.85;5.75;;;;;;;12.74;100.00;99080.06;4950413;29;20051;-80
2023/12/21 11:56:39;;;;;;;8.77;5.68;;;;;;;12.85;100.00;99071.50;4947752;29;20055;-77
2023/12/21 11:59:11;;;;;;;11.38;5.45;;;;;;;12.70;100.00;99057.88;4948072;29;20055;-79
2023/12/21 12:01:55;;;;;;;11.27;5.55;;;;;;;12.85;100.00;99053.13;4949434;29;20079;-79
2023/12/21 12:04:44;;;;;;;15.73;6.97;;;;;;;12.95;100.00;99066.63;4948163;28;20052;-79
2023/12/21 12:07:13;;;;;;;11.93;6.20;;;;;;;13.04;100.00;99064.56;4951567;29;20047;-79
2023/12/21 12:09:40;;;;;;;11.95;6.25;;;;;;;12.88;100.00;99047.47;4952425;29;20135;-79
2023/12/21 12:12:21;;;;;;;11.15;5.97;;;;;;;13.19;100.00;99051.19;4949168;29;20043;-78
2023/12/21 12:14:53;;;;;;;11.00;6.47;;;;;;;13.14;100.00;99033.41;4949340;29;20051;-81
2023/12/21 12:17:23;;;;;;;10.95;5.95;;;;;;;13.12;100.00;99019.69;4938452;29;20056;-80